Bruce Mines, Canada
Current Conditions -  °F | °C
As of 7:35 PM on Monday 24 Nov 2014 (Local Time) from KDRM Reporting Station
Light Rain Light Rain  
Wind Chill: 34°   Ceiling: 900
Heat Index: 38°   Visibility: 10mi
Dew Point: 37°   Wind: 6mph
Humidity: 95%   Direction: 270°W
Pressure: 29.17"   Gusts: NA
Location:  46.3°N, 83.79°W
Report Text: KDRM 250035Z AUTO 27005KT 10SM -RA OVC009 03/03 A2917 RMK AO2 T00340027
Loading
Personal Weather Stations






























Interactive Weather Map New forecast layout! Learn more

10-Day Weather Forecast

Advertisements
Track Severe Weather on mobile